createdAt,value
2022-10-28T00:01:15.937Z,88.19
2022-10-28T00:03:45.991Z,88.11
2022-10-28T00:06:17.563Z,87.72
2022-10-28T00:08:45.203Z,87.95
2022-10-28T00:11:21.803Z,87.64
2022-10-28T00:13:52.502Z,87.52
2022-10-28T00:16:23.546Z,87.08
2022-10-28T00:18:53.888Z,87.68
2022-10-28T00:21:30.191Z,87.44
2022-10-28T00:23:57.796Z,87.33
2022-10-28T00:26:30.623Z,86.92
2022-10-28T00:29:04.347Z,87.15
2022-10-28T00:31:33.443Z,86.88
2022-10-28T00:34:03.851Z,86.84
2022-10-28T00:36:34.462Z,86.82
2022-10-28T00:39:04.110Z,86.71
2022-10-28T00:41:35.196Z,86.54
2022-10-28T00:44:37.796Z,86.19
2022-10-28T00:47:17.635Z,86.56
2022-10-28T00:49:47.847Z,86.54
2022-10-28T00:52:24.367Z,86.47
2022-10-28T00:54:53.211Z,86.97
2022-10-28T00:57:25.109Z,86.49
2022-10-28T00:59:54.298Z,86.35
2022-10-28T01:02:21.992Z,86.29
2022-10-28T01:04:50.410Z,86.35
2022-10-28T01:07:17.976Z,86.36
2022-10-28T01:09:46.002Z,86.55
2022-10-28T01:12:32.204Z,86.42
2022-10-28T01:15:32.912Z,86.38
2022-10-28T01:18:09.258Z,86.77
2022-10-28T01:20:41.612Z,86.91
2022-10-28T01:23:43.662Z,86.35
2022-10-28T01:26:23.022Z,86.36
2022-10-28T01:29:11.093Z,86.60
2022-10-28T01:31:47.427Z,87.03
2022-10-28T01:34:48.762Z,86.76
2022-10-28T01:37:34.203Z,86.68
2022-10-28T01:40:16.063Z,86.95
2022-10-28T01:43:13.769Z,86.62
2022-10-28T01:45:52.047Z,86.95
2022-10-28T01:48:25.292Z,87.20
2022-10-28T01:50:59.108Z,86.64
2022-10-28T01:53:33.804Z,87.23
2022-10-28T01:56:07.511Z,87.18
2022-10-28T01:58:38.556Z,86.56
2022-10-28T02:01:09.261Z,86.75
2022-10-28T02:03:37.261Z,86.56
2022-10-28T02:06:07.918Z,86.52
2022-10-28T02:08:43.979Z,86.33
2022-10-28T02:11:14.416Z,86.06
2022-10-28T02:14:22.904Z,86.03
2022-10-28T02:16:58.484Z,85.97
2022-10-28T02:19:51.262Z,85.67
2022-10-28T02:22:23.876Z,85.50
2022-10-28T02:25:21.917Z,85.43
2022-10-28T02:27:55.818Z,85.29
2022-10-28T02:30:34.921Z,85.02
2022-10-28T02:33:07.027Z,85.22
2022-10-28T02:35:53.121Z,84.50
2022-10-28T02:38:27.964Z,84.86
2022-10-28T02:41:02.419Z,84.74
2022-10-28T02:43:35.267Z,84.66
2022-10-28T02:46:04.708Z,84.58
2022-10-28T02:48:39.884Z,84.51
2022-10-28T02:51:15.301Z,84.95
2022-10-28T02:54:19.102Z,84.73
2022-10-28T02:56:55.619Z,84.60
2022-10-28T02:59:25.049Z,85.02
2022-10-28T03:01:52.700Z,84.94
2022-10-28T03:04:20.311Z,85.10
2022-10-28T03:06:47.899Z,85.14
2022-10-28T03:09:15.392Z,84.88
2022-10-28T03:11:43.027Z,84.86
2022-10-28T03:14:13.215Z,84.55
2022-10-28T03:16:43.462Z,84.62
2022-10-28T03:19:10.946Z,84.08
2022-10-28T03:21:38.461Z,84.16
2022-10-28T03:24:06.280Z,84.22
2022-10-28T03:26:33.766Z,83.97
2022-10-28T03:29:01.285Z,84.04
2022-10-28T03:31:29.332Z,83.73
2022-10-28T03:33:56.839Z,83.66
2022-10-28T03:36:24.446Z,83.47
2022-10-28T03:38:51.989Z,83.35
2022-10-28T03:41:19.587Z,83.73
2022-10-28T03:43:47.028Z,83.31
2022-10-28T03:46:14.556Z,83.25
2022-10-28T03:48:42.021Z,83.19
2022-10-28T03:51:09.578Z,83.73
2022-10-28T03:53:37.116Z,83.44
2022-10-28T03:56:05.264Z,83.44
2022-10-28T03:58:36.045Z,83.72
2022-10-28T04:01:05.678Z,83.17
2022-10-28T04:03:33.175Z,83.18
2022-10-28T04:06:00.676Z,83.33
2022-10-28T04:08:28.195Z,83.07
2022-10-28T04:10:55.692Z,83.40
2022-10-28T04:13:23.121Z,83.31
2022-10-28T04:15:50.633Z,82.87
2022-10-28T04:18:18.104Z,83.09
2022-10-28T04:20:46.571Z,82.94
2022-10-28T04:23:17.066Z,83.22
2022-10-28T04:25:45.079Z,83.29
2022-10-28T04:28:12.576Z,83.33
2022-10-28T04:30:40.086Z,83.41
2022-10-28T04:33:07.611Z,83.48
2022-10-28T04:35:35.162Z,83.98
2022-10-28T04:38:02.811Z,83.86
2022-10-28T04:40:30.423Z,83.72
2022-10-28T04:42:57.851Z,83.78
2022-10-28T04:45:25.419Z,83.61
2022-10-28T04:48:01.896Z,83.54
2022-10-28T04:50:29.523Z,83.64
2022-10-28T04:52:57.030Z,83.68
2022-10-28T04:55:24.619Z,83.80
2022-10-28T04:57:59.927Z,83.61
2022-10-28T05:00:28.940Z,84.06
2022-10-28T05:02:57.358Z,83.93
2022-10-28T05:05:25.976Z,83.93
2022-10-28T05:07:53.659Z,83.73
2022-10-28T05:10:21.437Z,83.41
2022-10-28T05:12:49.083Z,83.45
2022-10-28T05:15:17.042Z,83.56
2022-10-28T05:17:46.398Z,83.10
2022-10-28T05:20:16.373Z,83.30
2022-10-28T05:22:49.122Z,83.39
2022-10-28T05:25:17.712Z,83.30
2022-10-28T05:27:45.764Z,83.51
2022-10-28T05:30:14.342Z,83.17
2022-10-28T05:32:41.934Z,82.96
2022-10-28T05:35:10.061Z,83.25
2022-10-28T05:37:38.028Z,83.10
2022-10-28T05:40:06.283Z,82.88
2022-10-28T05:42:33.720Z,83.03
2022-10-28T05:45:01.230Z,83.33
2022-10-28T05:47:28.689Z,83.27
2022-10-28T05:49:56.236Z,82.89
2022-10-28T05:52:23.755Z,82.89
2022-10-28T05:54:51.265Z,83.38
2022-10-28T05:57:18.740Z,83.27
2022-10-28T05:59:46.233Z,83.18
2022-10-28T06:02:15.212Z,83.26
2022-10-28T06:04:42.744Z,83.04
2022-10-28T06:07:10.197Z,82.83
2022-10-28T06:09:37.758Z,82.92
2022-10-28T06:12:05.307Z,82.79
2022-10-28T06:14:33.005Z,82.94
2022-10-28T06:17:00.730Z,82.67
2022-10-28T06:19:28.273Z,82.77
2022-10-28T06:21:55.729Z,83.17
2022-10-28T06:24:23.240Z,82.66
2022-10-28T06:26:50.826Z,82.53
2022-10-28T06:29:19.067Z,82.80
2022-10-28T06:31:46.599Z,82.54
2022-10-28T06:34:14.104Z,82.73
2022-10-28T06:36:41.991Z,82.85
2022-10-28T06:39:09.604Z,82.86
2022-10-28T06:41:37.187Z,82.70
2022-10-28T06:44:04.831Z,82.74
2022-10-28T06:46:34.040Z,82.77
2022-10-28T06:49:04.806Z,82.69
2022-10-28T06:51:32.664Z,82.24
2022-10-28T06:54:00.393Z,82.58
2022-10-28T06:56:27.943Z,82.33
2022-10-28T06:58:55.660Z,82.63
2022-10-28T07:01:23.272Z,82.62
2022-10-28T07:03:50.823Z,82.49
2022-10-28T07:06:18.401Z,82.77
2022-10-28T07:08:45.959Z,82.98
2022-10-28T07:11:14.173Z,83.04
2022-10-28T07:13:42.512Z,83.49
2022-10-28T07:16:11.871Z,83.38
2022-10-28T07:18:39.481Z,83.81
2022-10-28T07:21:07.109Z,83.57
2022-10-28T07:23:35.055Z,84.13
2022-10-28T07:26:02.594Z,83.94
2022-10-28T07:28:30.834Z,84.26
2022-10-28T07:31:02.709Z,84.21
2022-10-28T07:33:30.513Z,84.64
2022-10-28T07:35:58.040Z,84.47
2022-10-28T07:38:26.547Z,84.72
2022-10-28T07:40:54.168Z,84.81
2022-10-28T07:43:21.775Z,84.99
2022-10-28T07:45:55.379Z,85.03
2022-10-28T07:48:23.245Z,85.28
2022-10-28T07:50:50.806Z,84.98
2022-10-28T07:53:18.374Z,85.14
2022-10-28T07:55:45.918Z,85.43
2022-10-28T07:58:13.403Z,85.33
2022-10-28T08:00:41.011Z,85.40
2022-10-28T08:03:08.734Z,85.26
2022-10-28T08:05:36.207Z,85.01
2022-10-28T08:08:03.785Z,85.16
2022-10-28T08:10:31.291Z,84.66
2022-10-28T08:13:00.855Z,84.02
2022-10-28T08:15:29.907Z,83.68
2022-10-28T08:17:57.602Z,82.63
2022-10-28T08:20:25.262Z,81.89
2022-10-28T08:22:53.075Z,81.94
2022-10-28T08:25:20.840Z,81.68
2022-10-28T08:30:15.989Z,80.57
2022-10-28T08:32:43.472Z,80.25
2022-10-28T08:35:11.018Z,78.76
2022-10-28T08:37:38.549Z,78.12
2022-10-28T08:40:06.888Z,77.55
2022-10-28T08:42:57.528Z,74.80
2022-10-28T08:45:53.200Z,74.83
2022-10-28T08:48:26.425Z,75.31
2022-10-28T08:51:09.654Z,75.35
2022-10-28T08:54:03.918Z,75.20
2022-10-28T08:56:46.296Z,75.24
2022-10-28T08:59:19.092Z,76.31
2022-10-28T09:01:49.200Z,76.61
2022-10-28T09:04:23.120Z,76.99
2022-10-28T09:06:50.706Z,78.15
2022-10-28T09:09:21.885Z,78.38
2022-10-28T09:12:05.496Z,77.06
2022-10-28T09:15:02.061Z,76.42
2022-10-28T09:17:32.618Z,77.93
2022-10-28T09:20:05.642Z,78.12
2022-10-28T09:22:45.351Z,78.74
2022-10-28T09:25:21.967Z,79.69
2022-10-28T09:27:55.577Z,79.80
2022-10-28T09:30:38.837Z,80.02
2022-10-28T09:33:41.661Z,80.66
2022-10-28T09:36:17.012Z,80.71
2022-10-28T09:38:45.733Z,80.94
2022-10-28T09:41:27.838Z,81.04
2022-10-28T09:44:05.135Z,80.95
2022-10-28T09:46:36.233Z,81.24
2022-10-28T09:49:11.165Z,80.79
2022-10-28T09:51:49.967Z,80.76
2022-10-28T09:54:19.625Z,80.98
2022-10-28T09:56:47.174Z,80.95
2022-10-28T09:59:16.519Z,81.13
2022-10-28T10:01:46.775Z,80.77
2022-10-28T10:04:21.010Z,81.16
2022-10-28T10:07:01.050Z,81.01
2022-10-28T10:09:31.456Z,81.35
2022-10-28T10:12:13.419Z,81.22
2022-10-28T10:14:46.044Z,80.69
2022-10-28T10:17:45.911Z,80.67
2022-10-28T10:20:19.054Z,80.38
2022-10-28T10:22:49.052Z,80.43
2022-10-28T10:25:19.276Z,80.31
2022-10-28T10:27:51.710Z,79.14
2022-10-28T10:30:24.385Z,78.77
2022-10-28T10:32:52.775Z,78.93
2022-10-28T10:35:25.260Z,78.55
2022-10-28T10:37:55.953Z,77.71
2022-10-28T10:40:34.002Z,76.97
2022-10-28T10:43:30.900Z,75.32
2022-10-28T10:46:08.120Z,74.80
2022-10-28T10:48:36.741Z,73.96
2022-10-28T10:51:12.575Z,73.64
2022-10-28T10:53:40.812Z,73.91
2022-10-28T10:56:11.159Z,73.78
2022-10-28T10:58:47.301Z,73.83
2022-10-28T11:01:21.080Z,74.06
2022-10-28T11:03:54.227Z,73.76
2022-10-28T11:06:26.833Z,73.50
2022-10-28T11:09:03.986Z,73.41
2022-10-28T11:11:37.457Z,73.27
2022-10-28T11:14:11.043Z,73.38
2022-10-28T11:16:53.509Z,72.93
2022-10-28T11:19:24.649Z,73.29
2022-10-28T11:22:08.400Z,73.25
2022-10-28T11:24:45.099Z,73.12
2022-10-28T11:27:39.228Z,72.56
2022-10-28T11:30:13.973Z,72.99
2022-10-28T11:33:28.657Z,71.90
2022-10-28T11:36:11.668Z,72.59
2022-10-28T11:38:59.592Z,72.39
2022-10-28T11:41:51.937Z,72.18
2022-10-28T11:44:52.951Z,71.75
2022-10-28T11:47:41.115Z,71.86
2022-10-28T11:50:58.570Z,72.09
2022-10-28T11:53:37.325Z,72.78
2022-10-28T11:56:23.305Z,72.73
2022-10-28T11:58:56.777Z,72.57
2022-10-28T12:01:45.961Z,71.43
2022-10-28T12:04:51.556Z,71.71
2022-10-28T12:07:59.819Z,71.98
2022-10-28T12:10:42.548Z,72.18
2022-10-28T12:13:28.920Z,71.65
2022-10-28T12:16:07.517Z,72.28
2022-10-28T12:18:49.274Z,72.08
2022-10-28T12:24:09.672Z,71.62
2022-10-28T12:26:59.437Z,70.92
2022-10-28T12:29:38.816Z,70.96
2022-10-28T12:32:13.318Z,71.05
2022-10-28T12:34:49.294Z,71.31
2022-10-28T12:37:22.157Z,70.98
2022-10-28T12:40:04.868Z,70.57
2022-10-28T12:42:38.936Z,70.13
2022-10-28T12:45:12.078Z,69.54
2022-10-28T12:47:45.793Z,70.26
2022-10-28T12:50:17.613Z,70.19
2022-10-28T12:53:14.405Z,70.41
2022-10-28T12:55:51.505Z,70.76
2022-10-28T12:58:58.189Z,70.93
2022-10-28T13:01:31.078Z,71.13
2022-10-28T13:03:58.881Z,71.53
2022-10-28T13:06:29.661Z,71.07
2022-10-28T13:09:32.189Z,70.22
2022-10-28T13:12:27.006Z,70.68
2022-10-28T13:17:52.475Z,70.57
2022-10-28T13:20:28.389Z,71.00
2022-10-28T13:23:31.251Z,70.38
2022-10-28T13:26:39.847Z,70.84
2022-10-28T13:29:18.363Z,70.90
2022-10-28T13:31:47.987Z,71.09
2022-10-28T13:34:18.886Z,71.53
2022-10-28T13:36:57.524Z,71.64
2022-10-28T13:39:28.205Z,71.71
2022-10-28T13:42:14.940Z,71.38
2022-10-28T13:44:50.146Z,71.56
2022-10-28T13:47:17.702Z,71.62
2022-10-28T13:50:33.102Z,71.31
2022-10-28T13:53:25.595Z,71.76
2022-10-28T13:55:58.116Z,71.80
2022-10-28T13:58:26.895Z,71.92
2022-10-28T14:00:55.109Z,72.00
2022-10-28T14:03:26.012Z,71.97
2022-10-28T14:05:57.672Z,71.96
2022-10-28T14:08:29.587Z,71.66
2022-10-28T14:11:05.993Z,71.38
2022-10-28T14:13:47.939Z,71.61
2022-10-28T14:16:39.379Z,71.49
2022-10-28T14:19:06.881Z,71.73
2022-10-28T14:22:01.976Z,70.83
2022-10-28T14:24:40.838Z,71.91
2022-10-28T14:27:08.432Z,71.70
2022-10-28T14:29:48.554Z,71.16
2022-10-28T14:32:31.172Z,71.16
2022-10-28T14:35:10.709Z,71.02
2022-10-28T14:38:10.650Z,70.72
2022-10-28T14:40:54.160Z,70.70
2022-10-28T14:43:40.296Z,70.37
2022-10-28T14:46:34.213Z,69.64
2022-10-28T14:49:03.849Z,69.54
2022-10-28T14:51:39.613Z,69.45
2022-10-28T14:54:13.572Z,69.24
2022-10-28T14:56:41.452Z,69.09
2022-10-28T14:59:26.124Z,68.93
2022-10-28T15:01:59.726Z,69.40
2022-10-28T15:04:29.112Z,69.51
2022-10-28T15:06:57.474Z,69.48
2022-10-28T15:09:29.621Z,69.62
2022-10-28T15:12:01.082Z,70.02
2022-10-28T15:14:41.902Z,70.03
2022-10-28T15:17:17.090Z,70.03
2022-10-28T15:19:47.103Z,70.61
2022-10-28T15:22:20.769Z,71.03
2022-10-28T15:25:08.249Z,70.77
2022-10-28T15:27:38.270Z,71.48
2022-10-28T15:30:26.566Z,71.49
2022-10-28T15:32:55.720Z,71.94
2022-10-28T15:35:38.414Z,72.05
2022-10-28T15:38:21.338Z,72.43
2022-10-28T15:40:50.178Z,72.48
2022-10-28T15:43:21.098Z,72.72
2022-10-28T15:45:48.727Z,73.23
2022-10-28T15:48:23.730Z,73.42
2022-10-28T15:51:11.012Z,73.66
2022-10-28T15:53:40.617Z,74.02
2022-10-28T15:56:13.911Z,74.02
2022-10-28T15:58:43.461Z,73.96
2022-10-28T16:01:40.658Z,74.01
2022-10-28T16:04:23.355Z,74.71
2022-10-28T16:06:53.348Z,74.82
2022-10-28T16:09:34.141Z,74.55
2022-10-28T16:12:23.704Z,74.55
2022-10-28T16:15:00.734Z,75.23
2022-10-28T16:17:36.277Z,75.25
2022-10-28T16:20:17.222Z,74.98
2022-10-28T16:22:46.726Z,75.41
2022-10-28T16:25:17.578Z,75.47
2022-10-28T16:27:45.059Z,75.52
2022-10-28T16:30:13.101Z,75.19
2022-10-28T16:32:44.441Z,75.79
2022-10-28T16:35:22.655Z,75.71
2022-10-28T16:37:55.146Z,75.90
2022-10-28T16:43:22.629Z,76.82
2022-10-28T16:45:52.443Z,76.62
2022-10-28T16:48:22.659Z,76.97
2022-10-28T16:51:02.583Z,77.13
2022-10-28T16:53:32.099Z,77.65
2022-10-28T16:55:59.662Z,77.49
2022-10-28T16:58:28.804Z,77.87
2022-10-28T17:00:57.114Z,77.54
2022-10-28T17:03:24.628Z,77.92
2022-10-28T17:05:52.202Z,77.93
2022-10-28T17:08:36.236Z,78.38
2022-10-28T17:11:07.474Z,78.40
2022-10-28T17:13:35.036Z,78.85
2022-10-28T17:16:02.617Z,78.70
2022-10-28T17:18:30.765Z,78.85
2022-10-28T17:21:02.455Z,79.06
2022-10-28T17:23:30.548Z,79.04
2022-10-28T17:26:00.867Z,78.82
2022-10-28T17:28:28.826Z,79.28
2022-10-28T17:31:07.714Z,79.31
2022-10-28T17:33:35.346Z,79.65
2022-10-28T17:36:10.586Z,79.64
2022-10-28T17:38:38.355Z,79.51
2022-10-28T17:41:06.000Z,79.82
2022-10-28T17:43:33.628Z,79.62
2022-10-28T17:46:05.747Z,80.18
2022-10-28T17:48:34.231Z,80.36
2022-10-28T17:51:01.822Z,80.31
2022-10-28T17:53:29.448Z,79.91
2022-10-28T17:56:01.749Z,80.14
2022-10-28T17:58:29.523Z,80.02
2022-10-28T18:01:02.209Z,79.78
2022-10-28T18:03:33.990Z,80.14
2022-10-28T18:06:07.349Z,80.57
2022-10-28T18:08:39.142Z,80.53
2022-10-28T18:11:08.746Z,80.42
2022-10-28T18:13:39.107Z,80.94
2022-10-28T18:16:09.550Z,80.89
2022-10-28T18:18:42.031Z,80.91
2022-10-28T18:21:14.161Z,80.82
2022-10-28T18:23:41.869Z,81.33
2022-10-28T18:26:14.958Z,80.99
2022-10-28T18:28:43.827Z,80.98
2022-10-28T18:31:12.438Z,81.42
2022-10-28T18:33:41.167Z,81.67
2022-10-28T18:36:13.709Z,81.09
2022-10-28T18:38:41.708Z,81.56
2022-10-28T18:41:14.979Z,81.69
2022-10-28T18:43:42.578Z,81.35
2022-10-28T18:46:11.377Z,81.48
2022-10-28T18:48:39.991Z,81.41
2022-10-28T18:51:10.894Z,81.67
2022-10-28T18:53:44.142Z,81.73
2022-10-28T18:56:23.405Z,81.61
2022-10-28T18:58:52.389Z,81.44
2022-10-28T19:01:23.313Z,81.83
2022-10-28T19:03:52.998Z,81.88
2022-10-28T19:06:21.718Z,82.37
2022-10-28T19:08:54.045Z,82.09
2022-10-28T19:11:23.274Z,82.31
2022-10-28T19:13:50.823Z,82.35
2022-10-28T19:16:18.881Z,82.43
2022-10-28T19:18:46.424Z,82.24
2022-10-28T19:21:16.503Z,82.15
2022-10-28T19:23:44.099Z,82.14
2022-10-28T19:26:13.787Z,81.79
2022-10-28T19:28:46.777Z,82.30
2022-10-28T19:31:17.599Z,82.50
2022-10-28T19:33:45.644Z,81.56
2022-10-28T19:36:23.444Z,81.88
2022-10-28T19:38:55.098Z,81.14
2022-10-28T19:41:25.171Z,81.37
2022-10-28T19:43:58.918Z,81.14
2022-10-28T19:46:29.093Z,80.89
2022-10-28T19:48:59.530Z,81.28
2022-10-28T19:51:30.007Z,80.57
2022-10-28T19:54:05.712Z,80.81
2022-10-28T19:56:35.160Z,80.43
2022-10-28T19:59:04.409Z,80.20
2022-10-28T20:01:34.291Z,80.20
2022-10-28T20:04:02.207Z,80.46
2022-10-28T20:06:35.810Z,80.29
2022-10-28T20:09:04.240Z,80.36
2022-10-28T20:11:34.109Z,80.34
2022-10-28T20:14:11.740Z,80.15
2022-10-28T20:16:42.709Z,80.26
2022-10-28T20:19:10.722Z,80.12
2022-10-28T20:21:38.898Z,80.01
2022-10-28T20:24:07.557Z,80.03
2022-10-28T20:26:36.997Z,80.31
2022-10-28T20:29:06.867Z,80.90
2022-10-28T20:31:34.919Z,81.04
2022-10-28T20:34:04.088Z,80.89
2022-10-28T20:36:33.707Z,80.64
2022-10-28T20:39:02.347Z,80.87
2022-10-28T20:41:33.037Z,80.82
2022-10-28T20:44:01.633Z,80.77
2022-10-28T20:46:29.522Z,80.89
2022-10-28T20:48:57.334Z,80.96
2022-10-28T20:51:27.150Z,80.64
2022-10-28T20:53:55.592Z,81.14
2022-10-28T20:56:29.359Z,80.72
2022-10-28T20:58:57.968Z,81.41
2022-10-28T21:01:28.558Z,81.17
2022-10-28T21:03:58.701Z,80.96
2022-10-28T21:06:27.315Z,81.40
2022-10-28T21:08:55.171Z,81.06
2022-10-28T21:11:23.795Z,81.43
2022-10-28T21:13:53.521Z,81.46
2022-10-28T21:16:21.949Z,81.08
2022-10-28T21:18:49.932Z,81.78
2022-10-28T21:21:19.356Z,81.73
2022-10-28T21:23:46.957Z,81.50
2022-10-28T21:26:14.669Z,81.49
2022-10-28T21:28:42.401Z,81.97
2022-10-28T21:31:12.746Z,81.48
2022-10-28T21:33:41.805Z,82.11
2022-10-28T21:36:14.873Z,81.68
2022-10-28T21:38:42.877Z,81.99
2022-10-28T21:41:16.592Z,81.83
2022-10-28T21:43:47.873Z,82.01
2022-10-28T21:46:16.650Z,82.40
2022-10-28T21:48:44.585Z,82.08
2022-10-28T21:51:15.211Z,82.19
2022-10-28T21:53:44.682Z,82.27
2022-10-28T21:56:17.681Z,82.35
2022-10-28T21:58:48.261Z,81.96
2022-10-28T22:01:23.891Z,81.85
2022-10-28T22:03:54.704Z,82.34
2022-10-28T22:06:23.023Z,82.50
2022-10-28T22:08:54.908Z,82.15
2022-10-28T22:11:23.941Z,82.19
2022-10-28T22:14:00.392Z,82.54
2022-10-28T22:16:29.750Z,82.47
2022-10-28T22:19:04.125Z,82.55
2022-10-28T22:21:35.559Z,82.76
2022-10-28T22:24:03.176Z,82.37
2022-10-28T22:26:31.977Z,82.42
2022-10-28T22:29:00.420Z,82.97
2022-10-28T22:31:32.606Z,82.59
2022-10-28T22:34:00.778Z,83.05
2022-10-28T22:36:29.753Z,83.14
2022-10-28T22:38:57.711Z,82.70
2022-10-28T22:41:28.431Z,83.23
2022-10-28T22:43:58.438Z,83.19
2022-10-28T22:46:28.616Z,82.85
2022-10-28T22:48:56.852Z,82.84
2022-10-28T22:51:24.515Z,82.83
2022-10-28T22:53:52.075Z,82.79
2022-10-28T22:56:21.895Z,83.22
2022-10-28T22:58:54.096Z,82.72
2022-10-28T23:01:22.907Z,83.36
2022-10-28T23:03:52.211Z,83.38
2022-10-28T23:06:22.960Z,83.54
2022-10-28T23:08:50.597Z,83.34
2022-10-28T23:11:19.993Z,83.65
2022-10-28T23:13:52.489Z,83.83
2022-10-28T23:16:20.869Z,83.94
2022-10-28T23:18:48.899Z,83.75
2022-10-28T23:21:22.133Z,83.71
2022-10-28T23:23:56.828Z,84.02
2022-10-28T23:26:26.042Z,84.11
2022-10-28T23:28:55.602Z,84.09
2022-10-28T23:31:24.242Z,84.52
2022-10-28T23:33:53.935Z,84.21
2022-10-28T23:36:22.015Z,84.37
2022-10-28T23:38:49.514Z,84.36
2022-10-28T23:41:18.904Z,84.32
2022-10-28T23:43:47.391Z,84.71
2022-10-28T23:46:15.010Z,84.64
2022-10-28T23:48:42.724Z,84.76
2022-10-28T23:51:10.248Z,84.94
2022-10-28T23:53:38.057Z,84.32
2022-10-28T23:56:06.307Z,84.38
2022-10-28T23:58:33.912Z,84.37
